Time,TemperatureF,DewpointF,PressureIn,WindDirection,WindDirectionDegrees,WindSpeedMPH,WindSpeedGustMPH,Humidity,HourlyPrecipIn,Conditions,Clouds,dailyrainin,SoftwareType,DateUTC
2013-09-20 00:14:00,63.0,55.0,30.06,SW,236,3.0,5.0,74,0.00,,,0.00,,2013-09-20 04:14:00,
2013-09-20 00:24:00,63.0,55.0,30.06,SW,236,3.0,5.0,74,0.00,,,0.00,,2013-09-20 04:24:00,
2013-09-20 00:54:00,63.0,54.0,30.06,SW,235,0.0,5.0,73,0.00,,,0.00,,2013-09-20 04:54:00,
2013-09-20 01:23:00,62.0,54.0,30.06,SW,233,1.0,3.0,75,0.00,,,0.00,,2013-09-20 05:23:00,
2013-09-20 01:53:00,61.0,54.0,30.06,SW,227,1.0,4.0,78,0.00,,,0.00,,2013-09-20 05:53:00,
2013-09-20 02:12:00,60.0,53.0,30.06,SW,217,0.0,3.0,78,0.00,,,0.00,,2013-09-20 06:12:00,
2013-09-20 02:22:00,60.0,53.0,30.06,SW,217,0.0,3.0,78,0.00,,,0.00,,2013-09-20 06:22:00,
2013-09-20 02:52:00,60.0,54.0,30.06,SW,236,3.0,3.0,80,0.00,,,0.00,,2013-09-20 06:52:00,
2013-09-20 03:02:00,60.0,54.0,30.06,SW,236,3.0,3.0,80,0.00,,,0.00,,2013-09-20 07:02:00,
2013-09-20 03:12:00,60.0,54.0,30.06,SW,236,3.0,3.0,80,0.00,,,0.00,,2013-09-20 07:12:00,
2013-09-20 03:23:00,60.0,54.0,30.06,SW,236,3.0,3.0,80,0.00,,,0.00,,2013-09-20 07:23:00,
2013-09-20 03:53:00,59.0,53.0,30.06,SW,231,0.0,0.0,80,0.00,,,0.00,,2013-09-20 07:53:00,
2013-09-20 04:11:00,58.0,53.0,30.06,SW,233,0.0,0.0,82,0.00,,,0.00,,2013-09-20 08:11:00,
2013-09-20 04:22:00,58.0,53.0,30.06,SW,233,0.0,0.0,82,0.00,,,0.00,,2013-09-20 08:22:00,
2013-09-20 04:52:00,57.0,52.0,30.06,SW,234,0.0,1.0,83,0.00,,,0.00,,2013-09-20 08:52:00,
2013-09-20 05:22:00,56.0,52.0,30.06,SW,234,0.0,0.0,85,0.00,,,0.00,,2013-09-20 09:22:00,
2013-09-20 05:53:00,56.0,52.0,30.06,SW,234,0.0,1.0,86,0.00,,,0.00,,2013-09-20 09:53:00,
2013-09-20 06:13:00,56.0,52.0,30.06,SW,233,2.0,2.0,88,0.00,,,0.00,,2013-09-20 10:13:00,
2013-09-20 06:23:00,56.0,52.0,30.06,SW,233,2.0,2.0,88,0.00,,,0.00,,2013-09-20 10:23:00,
2013-09-20 06:32:00,56.0,52.0,30.06,SW,233,2.0,2.0,88,0.00,,,0.00,,2013-09-20 10:32:00,
2013-09-20 06:53:00,55.0,52.0,30.06,SW,231,0.0,1.0,88,0.00,,,0.00,,2013-09-20 10:53:00,
2013-09-20 07:23:00,56.0,53.0,30.06,SW,229,0.0,2.0,89,0.00,,,0.00,,2013-09-20 11:23:00,
2013-09-20 07:52:00,56.0,53.0,30.06,SW,229,1.0,3.0,89,0.00,,,0.00,,2013-09-20 11:52:00,
2013-09-20 08:12:00,57.0,53.0,30.07,SW,227,0.0,2.0,88,0.00,,,0.00,,2013-09-20 12:12:00,
2013-09-20 08:22:00,57.0,53.0,30.07,SW,227,0.0,2.0,88,0.00,,,0.00,,2013-09-20 12:22:00,
2013-09-20 08:52:00,60.0,55.0,30.06,SW,231,0.0,1.0,84,0.00,,,0.00,,2013-09-20 12:52:00,
2013-09-20 09:22:00,61.0,55.0,30.06,SW,229,1.0,2.0,80,0.00,,,0.00,,2013-09-20 13:22:00,
2013-09-20 09:53:00,63.0,55.0,30.07,SW,227,1.0,2.0,75,0.00,,,0.00,,2013-09-20 13:53:00,
2013-09-20 10:22:00,72.0,57.0,30.06,NW,317,0.0,2.0,59,0.00,,,0.00,,2013-09-20 14:22:00,
2013-09-20 10:52:00,72.0,56.0,30.06,NW,315,0.0,1.0,58,0.00,,,0.00,,2013-09-20 14:52:00,
2013-09-20 11:02:00,72.0,56.0,30.06,NW,315,0.0,1.0,58,0.00,,,0.00,,2013-09-20 15:02:00,
2013-09-20 11:12:00,72.0,56.0,30.06,NW,315,0.0,1.0,58,0.00,,,0.00,,2013-09-20 15:12:00,
2013-09-20 11:22:00,77.0,57.0,30.06,SSW,200,0.0,3.0,50,0.00,,,0.00,,2013-09-20 15:22:00,
2013-09-20 11:54:00,77.0,55.0,30.05,SSE,165,1.0,5.0,47,0.00,,,0.00,,2013-09-20 15:54:00,
2013-09-20 12:23:00,78.0,56.0,30.03,SSW,192,1.0,3.0,47,0.00,,,0.00,,2013-09-20 16:23:00,
2013-09-20 12:53:00,78.0,56.0,30.03,SSW,192,1.0,3.0,47,0.00,,,0.00,,2013-09-20 16:53:00,
2013-09-20 13:03:00,78.0,56.0,30.03,SSW,192,1.0,3.0,47,0.00,,,0.00,,2013-09-20 17:03:00,
2013-09-20 13:24:00,79.0,57.0,30.03,East,82,2.0,6.0,47,0.00,,,0.00,,2013-09-20 17:24:00,
2013-09-20 13:53:00,79.0,55.0,30.01,SE,129,3.0,9.0,44,0.00,,,0.00,,2013-09-20 17:53:00,
2013-09-20 14:12:00,79.0,56.0,30.01,SE,127,7.0,9.0,46,0.00,,,0.00,,2013-09-20 18:12:00,
2013-09-20 14:22:00,79.0,56.0,30.01,SE,127,7.0,9.0,46,0.00,,,0.00,,2013-09-20 18:22:00,
2013-09-20 14:52:00,78.0,56.0,30.00,ESE,102,6.0,12.0,46,0.00,,,0.00,,2013-09-20 18:52:00,
2013-09-20 15:02:00,78.0,56.0,30.00,ESE,102,6.0,12.0,46,0.00,,,0.00,,2013-09-20 19:02:00,
2013-09-20 15:12:00,78.0,56.0,30.00,ESE,102,6.0,12.0,46,0.00,,,0.00,,2013-09-20 19:12:00,
2013-09-20 15:22:00,78.0,56.0,30.00,ESE,102,6.0,12.0,46,0.00,,,0.00,,2013-09-20 19:22:00,
2013-09-20 15:53:00,75.0,54.0,29.99,East,94,4.0,10.0,48,0.00,,,0.00,,2013-09-20 19:53:00,
2013-09-20 16:22:00,74.0,54.0,29.99,SE,132,10.0,15.0,49,0.00,,,0.00,,2013-09-20 20:22:00,
2013-09-20 16:32:00,74.0,54.0,29.99,SE,132,10.0,15.0,49,0.00,,,0.00,,2013-09-20 20:32:00,
2013-09-20 16:52:00,73.0,54.0,29.99,ESE,121,10.0,10.0,52,0.00,,,0.00,,2013-09-20 20:52:00,
2013-09-20 17:22:00,72.0,55.0,29.99,SE,136,6.0,15.0,55,0.00,,,0.00,,2013-09-20 21:22:00,
2013-09-20 17:55:00,72.0,55.0,29.99,ESE,111,5.0,10.0,56,0.00,,,0.00,,2013-09-20 21:55:00,
2013-09-20 18:24:00,71.0,55.0,29.99,South,174,6.0,10.0,58,0.00,,,0.00,,2013-09-20 22:24:00,
2013-09-20 18:33:00,71.0,55.0,29.99,South,174,6.0,10.0,58,0.00,,,0.00,,2013-09-20 22:33:00,
2013-09-20 18:53:00,71.0,57.0,29.99,SSE,163,2.0,7.0,61,0.00,,,0.00,,2013-09-20 22:53:00,
2013-09-20 19:13:00,70.0,57.0,29.99,SE,136,5.0,6.0,63,0.00,,,0.00,,2013-09-20 23:13:00,
2013-09-20 19:22:00,70.0,58.0,29.98,SSE,158,3.0,9.0,65,0.00,,,0.00,,2013-09-20 23:22:00,
2013-09-20 19:34:00,70.0,58.0,29.98,SSE,158,3.0,9.0,65,0.00,,,0.00,,2013-09-20 23:34:00,
2013-09-20 19:53:00,68.0,59.0,29.98,SE,144,3.0,8.0,74,0.00,,,0.00,,2013-09-20 23:53:00,
2013-09-20 20:02:00,68.0,59.0,29.98,SE,144,3.0,8.0,74,0.00,,,0.00,,2013-09-21 00:02:00,
2013-09-20 20:11:00,68.0,59.0,29.98,SE,144,3.0,8.0,74,0.00,,,0.00,,2013-09-21 00:11:00,
2013-09-20 20:22:00,67.0,59.0,29.98,ESE,120,3.0,9.0,76,0.00,,,0.00,,2013-09-21 00:22:00,
2013-09-20 20:33:00,67.0,59.0,29.98,ESE,120,3.0,9.0,76,0.00,,,0.00,,2013-09-21 00:33:00,
2013-09-20 20:42:00,67.0,59.0,29.98,ESE,120,3.0,9.0,76,0.00,,,0.00,,2013-09-21 00:42:00,
2013-09-20 20:52:00,67.0,60.0,29.98,SSE,148,1.0,3.0,78,0.00,,,0.00,,2013-09-21 00:52:00,
2013-09-20 21:02:00,67.0,60.0,29.98,SSE,148,1.0,3.0,78,0.00,,,0.00,,2013-09-21 01:02:00,
2013-09-20 21:22:00,67.0,59.0,29.98,SSE,148,3.0,4.0,75,0.00,,,0.00,,2013-09-21 01:22:00,
2013-09-20 21:52:00,66.0,58.0,29.98,SSE,167,2.0,4.0,76,0.00,,,0.00,,2013-09-21 01:52:00,
2013-09-20 22:22:00,66.0,58.0,29.99,South,178,1.0,3.0,76,0.00,,,0.00,,2013-09-21 02:22:00,
2013-09-20 22:42:00,65.0,57.0,29.99,SSW,205,5.0,9.0,75,0.00,,,0.00,,2013-09-21 02:42:00,
2013-09-20 22:52:00,65.0,57.0,29.99,SSW,211,3.0,6.0,75,0.00,,,0.00,,2013-09-21 02:52:00,
2013-09-20 23:22:00,65.0,57.0,29.99,South,184,3.0,4.0,76,0.00,,,0.00,,2013-09-21 03:22:00,
2013-09-20 23:34:00,65.0,57.0,29.99,South,184,3.0,4.0,76,0.00,,,0.00,,2013-09-21 03:34:00,
2013-09-20 23:55:00,65.0,58.0,29.99,South,190,3.0,5.0,77,0.00,,,0.00,,2013-09-21 03:55:00,